Time;durP1;ratioP1;P1;durP2;ratioP2;P2;SDS_P1;SDS_P2;PMS_P1;PMS_P2;Temp;Humidity;BMP_temperature;BMP_pressure;BME280_temperature;BME280_humidity;BME280_pressure;Samples;Min_cycle;Max_cycle;Signal;HPM_P1;HPM_P2
2020/12/07 00:00:48;;;;;;;1.60;1.40;;;1.00;99.90;;;;;;2083550;28;20556;-62
2020/12/07 00:01:49;;;;;;;2.70;1.60;;;1.00;99.90;;;;;;2086287;28;20223;-62
2020/12/07 00:02:49;;;;;;;1.60;1.50;;;1.00;99.90;;;;;;2083213;28;20183;-62
2020/12/07 00:03:50;;;;;;;2.00;1.60;;;1.00;99.90;;;;;;2080695;28;20197;-63
2020/12/07 00:04:51;;;;;;;1.60;1.40;;;1.00;99.90;;;;;;2086275;28;20556;-61
2020/12/07 00:05:51;;;;;;;2.17;1.50;;;1.00;99.90;;;;;;2083976;28;20243;-61
2020/12/07 00:06:53;;;;;;;1.73;1.60;;;1.00;99.90;;;;;;2086128;28;20191;-62
2020/12/07 00:07:54;;;;;;;2.58;1.52;;;1.00;99.90;;;;;;2081206;28;20189;-61
2020/12/07 00:08:54;;;;;;;2.47;1.70;;;1.00;99.90;;;;;;2087058;28;20224;-61
2020/12/07 00:09:55;;;;;;;2.63;1.30;;;1.00;99.90;;;;;;2089410;28;20630;-62
2020/12/07 00:10:56;;;;;;;2.10;1.50;;;1.00;99.90;;;;;;2089127;28;20211;-62
2020/12/07 00:11:57;;;;;;;1.87;1.53;;;1.00;99.90;;;;;;2089373;28;20640;-62
2020/12/07 00:12:57;;;;;;;2.67;2.07;;;1.00;99.90;;;;;;2089180;28;20175;-60
2020/12/07 00:13:59;;;;;;;2.47;2.00;;;1.00;99.90;;;;;;2089155;28;20164;-61
2020/12/07 00:15:00;;;;;;;2.35;2.15;;;1.00;99.90;;;;;;2089117;28;20204;-62
2020/12/07 00:16:01;;;;;;;2.58;2.20;;;1.00;99.90;;;;;;2103021;22;20240;-66
2020/12/07 00:17:02;;;;;;;2.30;2.00;;;0.90;99.90;;;;;;2088354;28;20887;-66
2020/12/07 00:18:02;;;;;;;2.57;2.10;;;0.90;99.90;;;;;;2088781;28;20214;-66
2020/12/07 00:19:03;;;;;;;1.80;1.70;;;0.90;99.90;;;;;;2089579;28;20180;-66
2020/12/07 00:20:06;;;;;;;2.43;1.80;;;0.90;99.90;;;;;;2089727;28;20184;-67
2020/12/07 00:21:10;;;;;;;2.28;2.08;;;0.90;99.90;;;;;;2089474;28;20215;-65
2020/12/07 00:22:10;;;;;;;2.88;2.00;;;0.90;99.90;;;;;;2089557;28;20177;-65
2020/12/07 00:23:12;;;;;;;1.80;1.70;;;0.90;99.90;;;;;;2089624;28;20177;-64
2020/12/07 00:24:13;;;;;;;2.30;2.10;;;0.90;99.90;;;;;;2089321;28;20594;-63
2020/12/07 00:25:13;;;;;;;2.13;1.93;;;0.90;99.90;;;;;;2089943;28;20188;-64
2020/12/07 00:26:14;;;;;;;2.20;2.00;;;0.90;99.90;;;;;;2089407;28;20241;-64
2020/12/07 00:27:30;;;;;;;2.77;2.30;;;1.00;99.90;;;;;;2089722;28;20208;-62
2020/12/07 00:28:31;;;;;;;2.65;2.20;;;0.90;99.90;;;;;;2089752;28;20233;-63
2020/12/07 00:29:31;;;;;;;3.10;2.50;;;0.90;99.90;;;;;;2089541;28;20180;-64
2020/12/07 00:30:32;;;;;;;3.13;2.47;;;0.90;99.90;;;;;;2089599;28;20560;-64
2020/12/07 00:31:34;;;;;;;4.10;2.77;;;0.90;99.90;;;;;;2089388;28;20187;-63
2020/12/07 00:32:35;;;;;;;3.95;3.08;;;0.90;99.90;;;;;;2089466;28;20179;-64
2020/12/07 00:33:35;;;;;;;2.63;2.37;;;1.00;99.90;;;;;;2089602;28;20587;-64
2020/12/07 00:34:36;;;;;;;3.00;2.40;;;0.90;99.90;;;;;;2089330;28;20668;-65
2020/12/07 00:35:37;;;;;;;3.47;2.93;;;1.00;99.90;;;;;;2089321;28;20175;-66
2020/12/07 00:36:42;;;;;;;2.63;2.23;;;0.90;99.90;;;;;;2089536;28;20714;-64
2020/12/07 00:37:43;;;;;;;2.80;2.50;;;1.00;99.90;;;;;;2089650;28;20188;-64
2020/12/07 00:38:44;;;;;;;3.37;2.80;;;0.90;99.90;;;;;;2089392;28;20222;-64
2020/12/07 00:39:44;;;;;;;4.00;2.80;;;0.90;99.90;;;;;;2088931;28;20171;-64
2020/12/07 00:40:45;;;;;;;2.83;2.53;;;0.90;99.90;;;;;;2080356;28;20296;-63
2020/12/07 00:41:46;;;;;;;3.77;2.83;;;0.90;99.90;;;;;;2088850;28;20188;-64
2020/12/07 00:42:46;;;;;;;3.30;2.60;;;1.00;99.90;;;;;;2089294;28;20176;-64
2020/12/07 00:43:47;;;;;;;4.67;3.07;;;1.00;99.90;;;;;;2089352;28;20567;-63
2020/12/07 00:44:48;;;;;;;3.88;3.00;;;1.00;99.90;;;;;;2089575;28;20190;-64
2020/12/07 00:45:49;;;;;;;3.90;3.03;;;1.00;99.90;;;;;;2089444;28;20235;-63
2020/12/07 00:46:49;;;;;;;4.53;3.30;;;0.90;99.90;;;;;;2089641;28;20208;-64
2020/12/07 00:47:50;;;;;;;3.93;3.20;;;0.90;99.90;;;;;;2089643;28;20215;-64
2020/12/07 00:48:51;;;;;;;3.93;3.07;;;1.00;99.90;;;;;;2087902;28;20183;-63
2020/12/07 00:49:51;;;;;;;3.80;2.97;;;0.90;99.90;;;;;;2088736;28;20190;-64
2020/12/07 00:50:52;;;;;;;3.60;2.97;;;0.90;99.90;;;;;;2088808;28;20169;-64
2020/12/07 00:51:53;;;;;;;3.37;2.90;;;0.90;99.90;;;;;;2089548;28;20200;-63
2020/12/07 00:52:53;;;;;;;4.23;3.23;;;0.90;99.90;;;;;;2089345;28;20168;-63
2020/12/07 00:53:54;;;;;;;5.50;3.53;;;0.90;99.90;;;;;;2089557;28;20218;-64
2020/12/07 00:54:55;;;;;;;3.53;3.10;;;0.90;99.90;;;;;;2089401;28;20600;-64
2020/12/07 00:55:56;;;;;;;4.97;3.50;;;0.90;99.90;;;;;;2089358;28;20227;-63
2020/12/07 00:56:58;;;;;;;4.40;3.23;;;0.90;99.90;;;;;;2088659;28;20192;-64
2020/12/07 00:57:59;;;;;;;7.35;4.00;;;0.90;99.90;;;;;;2088636;28;20639;-63
2020/12/07 00:59:00;;;;;;;4.37;3.53;;;0.90;99.90;;;;;;2089580;28;20184;-64
2020/12/07 01:00:00;;;;;;;4.57;3.90;;;0.90;99.90;;;;;;2089448;28;20214;-64
2020/12/07 01:01:01;;;;;;;5.73;4.30;;;1.00;99.90;;;;;;2089285;28;20168;-64
2020/12/07 01:02:02;;;;;;;5.03;4.07;;;1.00;99.90;;;;;;2089264;28;20176;-65
2020/12/07 01:03:03;;;;;;;4.63;3.70;;;0.90;99.90;;;;;;2089545;28;20875;-65
2020/12/07 01:04:04;;;;;;;5.80;4.50;;;0.90;99.90;;;;;;2089321;28;20176;-64
2020/12/07 01:05:05;;;;;;;5.83;3.60;;;0.90;99.90;;;;;;2089573;28;20180;-67
2020/12/07 01:06:05;;;;;;;4.45;3.78;;;0.80;99.90;;;;;;2088517;28;20443;-64
2020/12/07 01:07:06;;;;;;;7.40;4.67;;;0.80;99.90;;;;;;2088738;28;20184;-64
2020/12/07 01:08:07;;;;;;;5.17;4.40;;;0.90;99.90;;;;;;2089494;28;20180;-65
2020/12/07 01:09:07;;;;;;;4.40;3.27;;;0.90;99.90;;;;;;2089459;28;20176;-65
2020/12/07 01:10:08;;;;;;;4.97;4.00;;;0.80;99.90;;;;;;2089359;28;20249;-64
2020/12/07 01:11:09;;;;;;;6.23;4.43;;;0.80;99.90;;;;;;2089116;28;20211;-64
2020/12/07 01:12:10;;;;;;;4.47;3.57;;;0.80;99.90;;;;;;2089340;28;20682;-64
2020/12/07 01:13:10;;;;;;;5.00;3.80;;;0.80;99.90;;;;;;2089328;28;20172;-64
2020/12/07 01:14:12;;;;;;;4.63;3.67;;;0.80;99.90;;;;;;2089295;28;20251;-67
2020/12/07 01:15:13;;;;;;;5.15;3.58;;;0.80;99.90;;;;;;2088885;28;20184;-67
2020/12/07 01:16:24;;;;;;;5.57;4.40;;;0.70;99.90;;;;;;2080164;28;20220;-66
2020/12/07 01:17:25;;;;;;;5.43;4.03;;;0.80;99.90;;;;;;2090211;28;20177;-66
2020/12/07 01:18:25;;;;;;;5.00;3.90;;;0.70;99.90;;;;;;2096946;28;20192;-67
2020/12/07 01:19:26;;;;;;;5.47;4.30;;;0.80;99.90;;;;;;2089278;28;20180;-64
2020/12/07 01:20:27;;;;;;;4.30;3.50;;;0.80;99.90;;;;;;2089322;28;20203;-66
2020/12/07 01:21:28;;;;;;;5.27;4.00;;;0.80;99.90;;;;;;2089310;28;20177;-66
2020/12/07 01:22:28;;;;;;;4.50;4.10;;;0.90;99.90;;;;;;2088592;28;20183;-65
2020/12/07 01:23:29;;;;;;;4.37;3.70;;;0.80;99.90;;;;;;2088527;28;20196;-66
2020/12/07 01:24:30;;;;;;;4.60;3.87;;;0.80;99.90;;;;;;2085751;28;20179;-65
2020/12/07 01:25:30;;;;;;;4.33;3.30;;;0.80;99.90;;;;;;2081161;28;20181;-63
2020/12/07 01:26:32;;;;;;;3.23;2.93;;;0.80;99.90;;;;;;2081082;28;20655;-67
2020/12/07 01:27:33;;;;;;;4.55;3.28;;;0.80;99.90;;;;;;2081126;28;20177;-66
2020/12/07 01:28:33;;;;;;;4.53;3.53;;;0.80;99.90;;;;;;2082285;28;20283;-66
2020/12/07 01:29:34;;;;;;;4.87;3.33;;;0.70;99.90;;;;;;2082672;28;20825;-66
2020/12/07 01:30:35;;;;;;;3.70;3.30;;;0.70;99.90;;;;;;2082792;28;20177;-65
2020/12/07 01:31:36;;;;;;;4.50;3.40;;;0.70;99.90;;;;;;2082564;28;20188;-66
2020/12/07 01:32:36;;;;;;;7.07;3.70;;;0.80;99.90;;;;;;2082813;28;20243;-67
2020/12/07 01:33:37;;;;;;;3.60;2.90;;;0.80;99.90;;;;;;2082651;28;20237;-65
2020/12/07 01:34:38;;;;;;;4.30;3.70;;;0.80;99.90;;;;;;2082577;28;20184;-66
2020/12/07 01:35:41;;;;;;;5.17;4.27;;;0.80;99.90;;;;;;2082700;28;20205;-67
2020/12/07 01:36:42;;;;;;;5.32;4.18;;;0.80;99.90;;;;;;2082080;28;20181;-67
2020/12/07 01:37:43;;;;;;;4.70;3.67;;;0.80;99.90;;;;;;2082347;28;20216;-67
2020/12/07 01:38:44;;;;;;;7.90;4.20;;;0.70;99.90;;;;;;2082729;28;20176;-67
2020/12/07 01:39:44;;;;;;;3.97;3.58;;;0.70;99.90;;;;;;2081846;28;20626;-67
2020/12/07 01:40:45;;;;;;;4.30;3.33;;;0.80;99.90;;;;;;2082149;28;20181;-67
2020/12/07 01:41:46;;;;;;;4.97;3.60;;;0.70;99.90;;;;;;2082476;28;20185;-67
2020/12/07 01:42:47;;;;;;;4.03;3.10;;;0.70;99.90;;;;;;2082583;28;20185;-67
2020/12/07 01:43:47;;;;;;;4.60;3.63;;;0.80;99.90;;;;;;2082487;28;20273;-66
2020/12/07 01:44:48;;;;;;;4.53;3.27;;;0.80;99.90;;;;;;2082803;28;20253;-67
2020/12/07 01:45:49;;;;;;;4.37;3.23;;;0.80;99.90;;;;;;2082295;28;20672;-67
2020/12/07 01:46:49;;;;;;;4.93;3.67;;;0.80;99.90;;;;;;2082748;28;20219;-66
2020/12/07 01:47:50;;;;;;;6.53;3.73;;;0.80;99.90;;;;;;2081967;28;20165;-67
2020/12/07 01:48:53;;;;;;;4.43;3.70;;;0.90;99.90;;;;;;2081965;28;20172;-66
2020/12/07 01:49:54;;;;;;;6.28;3.80;;;0.90;99.90;;;;;;2082518;28;20177;-66
2020/12/07 01:50:55;;;;;;;5.25;3.95;;;0.90;99.90;;;;;;2081396;28;20181;-67
2020/12/07 01:51:56;;;;;;;4.82;4.00;;;1.00;99.90;;;;;;2073771;28;20197;-67
2020/12/07 01:52:59;;;;;;;5.27;3.93;;;0.90;99.90;;;;;;2081965;28;20826;-68
2020/12/07 01:54:00;;;;;;;4.65;3.17;;;0.90;99.90;;;;;;2081819;28;20180;-67
2020/12/07 01:55:02;;;;;;;5.45;4.13;;;0.90;99.90;;;;;;2082027;28;20664;-67
2020/12/07 01:56:05;;;;;;;4.80;3.72;;;0.90;99.90;;;;;;2082268;28;20213;-64
2020/12/07 01:57:06;;;;;;;5.78;4.53;;;0.90;99.90;;;;;;2081769;28;20180;-66
2020/12/07 01:58:06;;;;;;;4.53;3.50;;;0.90;99.90;;;;;;2081940;28;20192;-65
2020/12/07 01:59:07;;;;;;;4.97;3.27;;;0.90;99.90;;;;;;2082693;28;20257;-65
2020/12/07 02:00:08;;;;;;;6.03;4.30;;;0.90;99.90;;;;;;2082512;28;20184;-65
2020/12/07 02:01:09;;;;;;;5.47;4.10;;;0.80;99.90;;;;;;2082169;28;20177;-64
2020/12/07 02:02:09;;;;;;;3.90;3.10;;;0.80;99.90;;;;;;2082410;28;20211;-65
2020/12/07 02:03:10;;;;;;;4.47;3.30;;;0.80;99.90;;;;;;2081955;28;20176;-67
2020/12/07 02:04:11;;;;;;;4.90;3.88;;;0.90;99.90;;;;;;2081877;28;20415;-65
2020/12/07 02:05:12;;;;;;;5.03;3.53;;;0.90;99.90;;;;;;2081928;28;20239;-64
2020/12/07 02:06:13;;;;;;;4.47;3.47;;;0.90;99.90;;;;;;2081616;28;20675;-65
2020/12/07 02:07:18;;;;;;;6.27;4.17;;;0.90;99.90;;;;;;2081984;28;20192;-65
2020/12/07 02:08:20;;;;;;;5.68;3.88;;;0.90;99.90;;;;;;2081881;28;20177;-69
2020/12/07 02:09:30;;;;;;;5.25;3.53;;;0.90;99.90;;;;;;2082159;28;20220;-65
2020/12/07 02:10:31;;;;;;;4.75;3.10;;;0.90;99.90;;;;;;2081873;28;20189;-67
2020/12/07 02:11:31;;;;;;;6.87;3.93;;;0.90;99.90;;;;;;2081725;28;20192;-64
2020/12/07 02:12:33;;;;;;;4.93;3.80;;;0.90;99.90;;;;;;2082451;28;20543;-64
2020/12/07 02:13:33;;;;;;;5.20;4.03;;;0.80;99.90;;;;;;2081763;28;20215;-65
2020/12/07 02:14:34;;;;;;;4.13;3.60;;;0.80;99.90;;;;;;2081830;28;20196;-67
2020/12/07 02:15:36;;;;;;;6.27;4.30;;;0.80;99.90;;;;;;2082370;28;20557;-66
2020/12/07 02:16:36;;;;;;;4.07;3.30;;;0.80;99.90;;;;;;2082348;28;20671;-67
2020/12/07 02:17:37;;;;;;;5.27;4.03;;;0.80;99.90;;;;;;2082477;28;20205;-65
2020/12/07 02:18:38;;;;;;;5.73;4.53;;;0.80;99.90;;;;;;2082025;28;20205;-62
2020/12/07 02:19:39;;;;;;;6.37;3.97;;;0.80;99.90;;;;;;2082564;28;20184;-65
2020/12/07 02:20:39;;;;;;;5.43;4.43;;;0.90;99.90;;;;;;2082335;28;20201;-64
2020/12/07 02:21:40;;;;;;;6.00;3.97;;;0.90;99.90;;;;;;2081462;28;20180;-64
2020/12/07 02:22:41;;;;;;;5.63;4.00;;;0.80;99.90;;;;;;2081533;28;20185;-65
2020/12/07 02:23:41;;;;;;;4.80;3.67;;;0.80;99.90;;;;;;2081770;28;20173;-66
2020/12/07 02:24:42;;;;;;;4.93;3.80;;;0.70;99.90;;;;;;2081578;28;20174;-64
2020/12/07 02:25:43;;;;;;;5.40;4.47;;;0.80;99.90;;;;;;2081669;28;20239;-65
2020/12/07 02:26:43;;;;;;;6.27;4.00;;;0.70;99.90;;;;;;2081697;28;20170;-65
2020/12/07 02:27:44;;;;;;;5.10;4.00;;;0.70;99.90;;;;;;2081721;28;20165;-64
2020/12/07 02:28:50;;;;;;;4.50;3.90;;;0.80;99.90;;;;;;2082247;28;20187;-64
2020/12/07 02:29:50;;;;;;;4.85;3.90;;;0.70;99.90;;;;;;2082148;28;20157;-64
2020/12/07 02:30:51;;;;;;;6.17;4.47;;;0.70;99.90;;;;;;2082061;28;20181;-66
2020/12/07 02:32:02;;;;;;;4.60;3.80;;;0.70;99.90;;;;;;2082357;28;20256;-65
2020/12/07 02:33:04;;;;;;;5.80;4.68;;;0.70;99.90;;;;;;2073438;28;20184;-65
2020/12/07 02:34:04;;;;;;;7.82;5.28;;;0.70;99.90;;;;;;2073703;28;20201;-64
2020/12/07 02:35:05;;;;;;;7.43;5.03;;;0.70;99.90;;;;;;2081620;28;20187;-65
2020/12/07 02:36:09;;;;;;;8.33;4.67;;;0.70;99.90;;;;;;2081279;28;20220;-64
2020/12/07 02:37:10;;;;;;;6.18;4.57;;;0.70;99.90;;;;;;2081622;28;20181;-65
2020/12/07 02:38:11;;;;;;;7.88;4.75;;;0.80;99.90;;;;;;2073548;28;20190;-65
2020/12/07 02:39:11;;;;;;;6.70;4.63;;;0.80;99.90;;;;;;2081371;28;20820;-65
2020/12/07 02:40:13;;;;;;;7.07;4.93;;;0.80;99.90;;;;;;2081294;28;20261;-65
2020/12/07 02:41:13;;;;;;;7.15;4.97;;;0.80;99.90;;;;;;2081893;28;20177;-65
2020/12/07 02:42:14;;;;;;;6.93;4.60;;;0.80;99.90;;;;;;2082168;28;20556;-64
2020/12/07 02:43:15;;;;;;;7.40;5.23;;;0.80;99.90;;;;;;2081578;28;20181;-64
2020/12/07 02:44:16;;;;;;;7.63;5.33;;;0.80;99.90;;;;;;2073297;28;20432;-65
2020/12/07 02:45:17;;;;;;;6.13;4.87;;;0.80;99.90;;;;;;2081623;28;20181;-65
2020/12/07 02:46:18;;;;;;;6.22;4.57;;;0.80;99.90;;;;;;2081833;28;20224;-65
2020/12/07 02:47:19;;;;;;;7.53;5.37;;;0.80;99.90;;;;;;2082183;28;20188;-64
2020/12/07 02:48:19;;;;;;;13.90;7.37;;;0.80;99.90;;;;;;2082110;28;20271;-65
2020/12/07 02:49:20;;;;;;;9.80;6.20;;;0.80;99.90;;;;;;2081378;28;20212;-64
2020/12/07 02:50:21;;;;;;;7.50;5.50;;;0.90;99.90;;;;;;2081529;28;20177;-64
2020/12/07 02:51:21;;;;;;;6.07;4.60;;;0.90;99.90;;;;;;2081953;28;20185;-64
2020/12/07 02:52:24;;;;;;;6.80;4.63;;;0.80;99.90;;;;;;2081824;28;20185;-67
2020/12/07 02:53:25;;;;;;;6.18;4.50;;;0.70;99.90;;;;;;2081519;28;20184;-65
2020/12/07 02:54:25;;;;;;;6.77;4.60;;;0.70;99.90;;;;;;2081447;28;20604;-65
2020/12/07 02:55:26;;;;;;;5.10;3.70;;;0.70;99.90;;;;;;2082186;28;20201;-65
2020/12/07 02:56:27;;;;;;;7.50;5.30;;;0.70;99.90;;;;;;2082037;28;20246;-65
2020/12/07 02:57:28;;;;;;;7.23;5.47;;;0.70;99.90;;;;;;2082001;28;20209;-64
2020/12/07 02:58:29;;;;;;;7.03;4.40;;;0.70;99.90;;;;;;2081900;28;20777;-64
2020/12/07 02:59:30;;;;;;;6.63;4.50;;;0.70;99.90;;;;;;2082004;28;20183;-64
2020/12/07 03:00:31;;;;;;;7.77;4.27;;;0.70;99.90;;;;;;2081861;28;20638;-67
2020/12/07 03:01:31;;;;;;;4.97;3.80;;;0.70;99.90;;;;;;2081966;28;20555;-64
2020/12/07 03:02:34;;;;;;;6.73;4.70;;;0.70;99.90;;;;;;2081992;28;20260;-67
2020/12/07 03:03:35;;;;;;;7.78;4.68;;;0.70;99.90;;;;;;2082028;28;20176;-63
2020/12/07 03:04:36;;;;;;;6.30;4.07;;;0.70;99.90;;;;;;2081265;28;20646;-67
2020/12/07 03:05:36;;;;;;;6.77;4.37;;;0.70;99.90;;;;;;2073327;28;20184;-65
2020/12/07 03:06:37;;;;;;;5.63;3.00;;;0.70;99.90;;;;;;2081481;28;20260;-64
2020/12/07 03:07:38;;;;;;;5.43;4.00;;;0.70;99.90;;;;;;2089729;28;20782;-65
2020/12/07 03:08:38;;;;;;;6.03;3.57;;;0.70;99.90;;;;;;2089503;28;20215;-64
2020/12/07 03:09:39;;;;;;;5.57;4.33;;;0.70;99.90;;;;;;2082037;28;20197;-65
2020/12/07 03:10:40;;;;;;;5.40;4.00;;;0.80;99.90;;;;;;2081883;28;20795;-65
2020/12/07 03:11:41;;;;;;;6.37;4.50;;;0.80;99.90;;;;;;2081939;28;20183;-65
2020/12/07 03:12:42;;;;;;;5.43;3.93;;;0.80;99.90;;;;;;2081941;28;20722;-64
2020/12/07 03:13:42;;;;;;;7.20;3.87;;;0.80;99.90;;;;;;2081354;28;20203;-65
2020/12/07 03:14:43;;;;;;;4.90;3.40;;;0.70;99.90;;;;;;2081152;28;20265;-64
2020/12/07 03:15:44;;;;;;;4.20;3.30;;;0.80;99.90;;;;;;2081594;28;20208;-64
2020/12/07 03:16:44;;;;;;;4.70;3.83;;;0.80;99.90;;;;;;2081284;28;20160;-63
2020/12/07 03:17:45;;;;;;;5.70;3.93;;;0.80;99.90;;;;;;2081455;28;20185;-64
2020/12/07 03:18:46;;;;;;;4.87;3.57;;;0.70;99.90;;;;;;2082115;28;20570;-64
2020/12/07 03:19:46;;;;;;;4.50;3.37;;;0.80;99.90;;;;;;2081906;28;20185;-64
2020/12/07 03:20:47;;;;;;;6.53;4.50;;;0.80;99.90;;;;;;2081989;28;20184;-65
2020/12/07 03:21:48;;;;;;;5.10;3.77;;;0.80;99.90;;;;;;2084190;28;20605;-66
2020/12/07 03:22:49;;;;;;;4.83;4.00;;;0.80;99.90;;;;;;2081883;28;20259;-64
2020/12/07 03:23:49;;;;;;;5.80;3.93;;;0.80;99.90;;;;;;2081853;28;20627;-65
2020/12/07 03:24:50;;;;;;;3.80;3.13;;;0.80;99.90;;;;;;2081949;28;20187;-65
2020/12/07 03:25:51;;;;;;;5.70;3.70;;;0.80;99.90;;;;;;2081650;28;20196;-64
2020/12/07 03:26:51;;;;;;;4.43;3.47;;;0.80;99.90;;;;;;2081986;28;20817;-65
2020/12/07 03:27:52;;;;;;;4.90;3.53;;;0.90;99.90;;;;;;2081892;28;20283;-64
2020/12/07 03:28:53;;;;;;;5.93;4.50;;;0.90;99.90;;;;;;2081908;28;20180;-68
2020/12/07 03:29:53;;;;;;;5.17;3.90;;;0.90;99.90;;;;;;2081929;28;20215;-65
2020/12/07 03:30:54;;;;;;;5.13;3.77;;;0.90;99.90;;;;;;2080755;28;20241;-64
2020/12/07 03:31:55;;;;;;;5.33;4.07;;;0.90;99.90;;;;;;2081076;28;20267;-65
2020/12/07 03:32:55;;;;;;;5.67;3.93;;;0.90;99.90;;;;;;2081926;28;20203;-65
2020/12/07 03:33:57;;;;;;;6.43;4.17;;;0.90;99.90;;;;;;2081751;28;20181;-66
2020/12/07 03:34:57;;;;;;;5.32;3.90;;;0.90;99.90;;;;;;2081937;28;20173;-65
2020/12/07 03:35:58;;;;;;;5.43;3.73;;;0.90;99.90;;;;;;2081578;28;20213;-64
2020/12/07 03:36:59;;;;;;;5.77;4.20;;;0.90;99.90;;;;;;2081617;28;20284;-64
2020/12/07 03:37:59;;;;;;;5.77;4.47;;;0.90;99.90;;;;;;2081741;28;20732;-66
2020/12/07 03:39:00;;;;;;;5.57;3.77;;;0.90;99.90;;;;;;2081637;28;20546;-65
2020/12/07 03:40:01;;;;;;;5.47;4.07;;;0.90;99.90;;;;;;2081868;28;20260;-64
2020/12/07 03:41:01;;;;;;;6.03;4.20;;;0.90;99.90;;;;;;2081571;28;20197;-65
2020/12/07 03:42:02;;;;;;;5.40;3.83;;;1.00;99.90;;;;;;2081478;28;20211;-65
2020/12/07 03:43:03;;;;;;;5.23;4.00;;;0.90;99.90;;;;;;2081825;28;20538;-63
2020/12/07 03:44:03;;;;;;;6.13;4.20;;;0.80;99.90;;;;;;2081678;28;20173;-67
2020/12/07 03:45:04;;;;;;;5.90;4.27;;;0.80;99.90;;;;;;2081643;28;20702;-65
2020/12/07 03:46:05;;;;;;;8.20;5.30;;;0.80;99.90;;;;;;2072762;28;20198;-65
2020/12/07 03:47:05;;;;;;;5.63;3.97;;;0.80;99.90;;;;;;2072956;28;20405;-65
2020/12/07 03:48:06;;;;;;;7.97;4.50;;;0.80;99.90;;;;;;2081556;28;20192;-65
2020/12/07 03:49:07;;;;;;;9.00;4.93;;;0.80;99.90;;;;;;2081654;28;20711;-64
2020/12/07 03:50:07;;;;;;;6.90;4.37;;;0.80;99.90;;;;;;2081713;28;20181;-67
2020/12/07 03:51:08;;;;;;;7.80;4.87;;;0.80;99.90;;;;;;2081427;28;20177;-65
2020/12/07 03:52:09;;;;;;;5.90;4.28;;;0.80;99.90;;;;;;2081027;28;20207;-65
2020/12/07 03:53:10;;;;;;;6.37;4.30;;;0.80;99.90;;;;;;2080963;28;20196;-65
2020/12/07 03:54:10;;;;;;;7.97;4.90;;;0.80;99.90;;;;;;2081672;28;20250;-64
2020/12/07 03:55:11;;;;;;;7.47;5.07;;;0.80;99.90;;;;;;2081808;28;20254;-65
2020/12/07 03:56:12;;;;;;;7.78;4.90;;;0.80;99.90;;;;;;2080930;28;20209;-65
2020/12/07 03:57:13;;;;;;;7.70;5.03;;;0.80;99.90;;;;;;2080977;28;20189;-65
2020/12/07 03:58:14;;;;;;;5.60;3.93;;;0.80;99.90;;;;;;2080069;28;20186;-65
2020/12/07 03:59:14;;;;;;;6.20;4.43;;;0.80;99.90;;;;;;2081429;28;20177;-65
2020/12/07 04:00:15;;;;;;;6.67;4.43;;;0.80;99.90;;;;;;2081631;28;20237;-65
2020/12/07 04:01:16;;;;;;;5.97;4.00;;;0.80;99.90;;;;;;2081430;28;20181;-66
2020/12/07 04:02:17;;;;;;;4.80;3.60;;;0.80;99.90;;;;;;2081552;28;20301;-65
2020/12/07 04:03:19;;;;;;;6.00;4.10;;;0.80;99.90;;;;;;2081717;28;20230;-65
2020/12/07 04:04:25;;;;;;;5.97;4.38;;;0.80;99.90;;;;;;2081446;28;20177;-65
2020/12/07 04:05:31;;;;;;;5.68;4.40;;;0.80;99.90;;;;;;2081034;28;20584;-65
2020/12/07 04:06:35;;;;;;;5.57;4.07;;;0.80;99.90;;;;;;2080597;28;20555;-64
2020/12/07 04:07:36;;;;;;;5.97;4.30;;;0.80;99.90;;;;;;2081493;28;20197;-65
2020/12/07 04:08:36;;;;;;;5.50;3.97;;;0.70;99.90;;;;;;2081461;28;20185;-65
2020/12/07 04:09:37;;;;;;;5.87;3.80;;;0.80;99.90;;;;;;2080829;28;20187;-67
2020/12/07 04:10:39;;;;;;;7.17;4.53;;;0.70;99.90;;;;;;2080837;28;20781;-65
2020/12/07 04:11:39;;;;;;;5.85;4.22;;;0.70;99.90;;;;;;2081263;28;20185;-64
2020/12/07 04:12:40;;;;;;;8.10;4.37;;;0.80;99.90;;;;;;2081366;28;20188;-65
2020/12/07 04:13:41;;;;;;;6.10;3.73;;;0.80;99.90;;;;;;2081474;28;20204;-66
2020/12/07 04:14:41;;;;;;;8.93;5.00;;;0.80;99.90;;;;;;2081274;28;20192;-65
2020/12/07 04:15:42;;;;;;;8.17;4.60;;;0.80;99.90;;;;;;2081105;28;20250;-65
2020/12/07 04:16:43;;;;;;;10.03;5.07;;;0.80;99.90;;;;;;2081479;28;20172;-65
2020/12/07 04:17:43;;;;;;;5.30;3.97;;;0.80;99.90;;;;;;2081533;28;20595;-64
2020/12/07 04:18:44;;;;;;;5.57;4.17;;;0.80;99.90;;;;;;2081363;28;20175;-65
2020/12/07 04:19:45;;;;;;;5.40;3.87;;;0.70;99.90;;;;;;2081381;28;20189;-65
2020/12/07 04:20:45;;;;;;;6.73;4.10;;;0.70;99.90;;;;;;2081263;28;20264;-67
2020/12/07 04:21:46;;;;;;;6.23;4.23;;;0.70;99.90;;;;;;2081384;28;20183;-65
2020/12/07 04:22:47;;;;;;;8.07;4.70;;;0.70;99.90;;;;;;2081415;28;20733;-66
2020/12/07 04:23:47;;;;;;;8.17;5.00;;;0.70;99.90;;;;;;2081086;28;20208;-65
2020/12/07 04:24:48;;;;;;;7.27;4.43;;;0.70;99.90;;;;;;2081288;28;20169;-65
2020/12/07 04:25:52;;;;;;;10.40;5.40;;;0.80;99.90;;;;;;2081068;28;20338;-66
2020/12/07 04:26:52;;;;;;;7.43;4.63;;;0.80;99.90;;;;;;2081297;28;20560;-66
2020/12/07 04:27:53;;;;;;;9.20;4.47;;;0.80;99.90;;;;;;2081156;28;20177;-65
2020/12/07 04:28:54;;;;;;;7.20;4.47;;;0.80;99.90;;;;;;2081477;28;20571;-66
2020/12/07 04:29:55;;;;;;;8.70;4.73;;;0.80;99.90;;;;;;2080580;28;20178;-66
2020/12/07 04:30:56;;;;;;;8.43;4.90;;;0.80;99.90;;;;;;2080556;28;20186;-66
2020/12/07 04:31:56;;;;;;;5.53;3.80;;;0.80;99.90;;;;;;2081029;28;20177;-66
2020/12/07 04:32:57;;;;;;;6.77;4.27;;;0.80;99.90;;;;;;2081300;28;20663;-66
2020/12/07 04:33:58;;;;;;;6.37;4.20;;;0.80;99.90;;;;;;2081274;28;20314;-65
2020/12/07 04:34:58;;;;;;;7.57;4.50;;;0.80;99.90;;;;;;2081277;28;20173;-66
2020/12/07 04:35:59;;;;;;;8.13;4.33;;;0.80;99.90;;;;;;2080480;28;20255;-65
2020/12/07 04:37:00;;;;;;;6.40;3.93;;;0.80;99.90;;;;;;2080535;28;20258;-66
2020/12/07 04:38:01;;;;;;;7.57;4.60;;;0.80;99.90;;;;;;2081242;28;20234;-66
2020/12/07 04:39:02;;;;;;;6.47;4.53;;;0.90;99.90;;;;;;2080750;28;20620;-65
2020/12/07 04:40:06;;;;;;;6.20;4.18;;;0.90;99.90;;;;;;2072630;28;20182;-65
2020/12/07 04:41:07;;;;;;;6.53;4.13;;;0.90;99.90;;;;;;2072720;28;20236;-65
2020/12/07 04:42:08;;;;;;;6.93;4.55;;;0.80;99.90;;;;;;2080526;28;20185;-65
2020/12/07 04:43:09;;;;;;;6.50;4.37;;;0.90;99.90;;;;;;2081230;28;20267;-65
2020/12/07 04:44:10;;;;;;;7.50;4.67;;;0.90;99.90;;;;;;2080646;28;20173;-65
2020/12/07 04:45:10;;;;;;;6.27;4.30;;;0.90;99.90;;;;;;2080590;28;20682;-66
2020/12/07 04:46:13;;;;;;;6.53;4.23;;;0.90;99.90;;;;;;2088616;28;20211;-66
2020/12/07 04:47:17;;;;;;;6.85;4.60;;;0.90;99.90;;;;;;2080738;28;20200;-65
2020/12/07 04:48:21;;;;;;;6.75;4.47;;;0.90;99.90;;;;;;2080629;28;20239;-67
2020/12/07 04:49:23;;;;;;;6.03;4.18;;;0.90;99.90;;;;;;2080502;28;20538;-66
2020/12/07 04:50:29;;;;;;;6.85;4.55;;;0.90;99.90;;;;;;2080503;28;20196;-66
2020/12/07 04:51:32;;;;;;;6.18;4.00;;;0.90;99.90;;;;;;2080492;28;20165;-66
2020/12/07 04:52:33;;;;;;;6.05;4.00;;;0.90;99.90;;;;;;2080405;28;20181;-65
2020/12/07 04:53:35;;;;;;;6.22;4.25;;;0.90;99.90;;;;;;2072539;28;20185;-66
2020/12/07 04:54:42;;;;;;;5.95;3.80;;;1.00;99.90;;;;;;2080315;28;20185;-65
2020/12/07 04:55:43;;;;;;;6.80;4.43;;;1.00;99.90;;;;;;2080240;28;20184;-66
2020/12/07 04:56:44;;;;;;;6.33;4.17;;;1.00;99.90;;;;;;2080268;28;20269;-66
2020/12/07 04:57:44;;;;;;;6.17;3.97;;;0.90;99.90;;;;;;2080948;28;20304;-65
2020/12/07 04:58:47;;;;;;;6.67;3.97;;;1.00;99.90;;;;;;2080688;28;20671;-65
2020/12/07 04:59:48;;;;;;;8.18;4.40;;;0.90;99.90;;;;;;2080948;28;20238;-65
2020/12/07 05:00:49;;;;;;;7.85;4.35;;;1.00;99.90;;;;;;2079993;28;20187;-65
2020/12/07 05:01:51;;;;;;;5.63;3.97;;;0.90;99.90;;;;;;2080334;28;20610;-66
2020/12/07 05:02:54;;;;;;;4.95;3.97;;;0.90;99.90;;;;;;2080411;28;20660;-65
2020/12/07 05:03:55;;;;;;;5.93;3.78;;;0.90;99.90;;;;;;2072129;28;20174;-65
2020/12/07 05:04:55;;;;;;;6.07;4.17;;;0.80;99.90;;;;;;2071982;28;20181;-66
2020/12/07 05:05:59;;;;;;;7.10;5.07;;;0.80;99.90;;;;;;2080940;28;20201;-66
2020/12/07 05:07:05;;;;;;;6.22;4.57;;;0.80;99.90;;;;;;2080788;28;20177;-65
2020/12/07 05:08:06;;;;;;;6.78;5.07;;;0.80;99.90;;;;;;2080304;28;20218;-66
2020/12/07 05:09:08;;;;;;;9.50;6.07;;;0.80;99.90;;;;;;2080254;28;20177;-64
2020/12/07 05:10:13;;;;;;;8.00;5.63;;;0.80;99.90;;;;;;2080784;28;20169;-66
2020/12/07 05:11:14;;;;;;;8.05;5.88;;;0.80;99.90;;;;;;2080585;28;20173;-66
2020/12/07 05:12:21;;;;;;;10.00;6.37;;;0.80;99.90;;;;;;2080326;28;20180;-65
2020/12/07 05:14:23;;;;;;;7.17;4.90;;;0.80;99.90;;;;;;2080957;28;20250;-66
2020/12/07 05:15:24;;;;;;;9.90;5.85;;;0.70;99.90;;;;;;2080714;28;20212;-65
2020/12/07 05:16:25;;;;;;;13.80;6.80;;;0.70;99.90;;;;;;2080699;28;20213;-65
2020/12/07 05:17:25;;;;;;;10.05;6.13;;;0.70;99.90;;;;;;2080803;28;20201;-65
2020/12/07 05:18:26;;;;;;;8.43;6.00;;;0.70;99.90;;;;;;2080299;28;20217;-66
2020/12/07 05:19:28;;;;;;;9.60;6.00;;;0.70;99.90;;;;;;2080157;28;20201;-66
2020/12/07 05:20:28;;;;;;;11.63;6.20;;;0.80;99.90;;;;;;2080247;28;20768;-66
2020/12/07 05:21:29;;;;;;;9.00;6.07;;;0.70;99.90;;;;;;2080419;28;20209;-65
2020/12/07 05:22:30;;;;;;;9.03;5.20;;;0.80;99.90;;;;;;2080221;28;20251;-65
2020/12/07 05:23:40;;;;;;;9.40;5.67;;;0.80;99.90;;;;;;2080179;28;20626;-66
2020/12/07 05:24:51;;;;;;;8.35;5.25;;;0.80;99.90;;;;;;2080694;28;20726;-66